createdAt,value
2018-09-17T00:04:07.178Z,65.76
2018-09-17T00:09:11.646Z,65.38
2018-09-17T00:14:14.649Z,65.53
2018-09-17T00:19:17.690Z,65.41
2018-09-17T00:24:20.720Z,66.31
2018-09-17T00:29:23.711Z,66.08
2018-09-17T00:34:28.753Z,66.17
2018-09-17T00:39:32.350Z,67.01
2018-09-17T00:44:35.768Z,66.27
2018-09-17T00:49:38.830Z,66.31
2018-09-17T00:54:41.873Z,66.65
2018-09-17T00:59:44.875Z,66.57
2018-09-17T01:04:47.903Z,66.95
2018-09-17T01:09:50.931Z,67.58
2018-09-17T01:14:53.994Z,67.67
2018-09-17T01:19:58.241Z,67.55
2018-09-17T01:25:02.078Z,67.46
2018-09-17T01:30:05.643Z,67.05
2018-09-17T01:35:08.713Z,66.66
2018-09-17T01:40:11.799Z,67.64
2018-09-17T01:45:14.850Z,67.69
2018-09-17T01:50:17.955Z,65.75
2018-09-17T01:55:20.989Z,65.99
2018-09-17T02:00:24.046Z,66.50
2018-09-17T02:05:29.734Z,66.27
2018-09-17T02:10:33.470Z,66.37
2018-09-17T02:15:37.116Z,66.45
2018-09-17T02:20:40.122Z,66.16
2018-09-17T02:25:43.159Z,66.52
2018-09-17T02:30:46.217Z,66.93
2018-09-17T02:35:49.235Z,67.48
2018-09-17T02:40:52.254Z,67.70
2018-09-17T02:45:55.911Z,67.65
2018-09-17T02:51:00.601Z,67.43
2018-09-17T02:56:04.327Z,67.56
2018-09-17T03:01:07.865Z,67.25
2018-09-17T03:06:10.860Z,67.40
2018-09-17T03:11:13.886Z,67.20
2018-09-17T03:16:17.247Z,67.41
2018-09-17T03:21:20.651Z,67.95
2018-09-17T03:26:23.907Z,68.40
2018-09-17T03:31:28.185Z,67.42
2018-09-17T03:36:32.169Z,68.18
2018-09-17T03:41:35.566Z,68.83
2018-09-17T03:46:38.644Z,68.64
2018-09-17T03:51:41.657Z,68.29
2018-09-17T03:56:44.669Z,68.32
2018-09-17T04:01:47.702Z,68.71
2018-09-17T04:06:50.700Z,67.69
2018-09-17T04:11:53.756Z,68.43
2018-09-17T04:16:57.458Z,68.31
2018-09-17T04:22:01.670Z,68.34
2018-09-17T04:27:04.580Z,68.15
2018-09-17T04:32:07.596Z,68.37
2018-09-17T04:37:10.605Z,68.33
2018-09-17T04:42:13.624Z,68.43
2018-09-17T04:47:17.631Z,68.13
2018-09-17T04:52:21.753Z,68.88
2018-09-17T04:57:25.429Z,68.53
2018-09-17T05:02:28.416Z,68.41
2018-09-17T05:07:31.469Z,68.74
2018-09-17T05:12:34.481Z,69.28
2018-09-17T05:17:37.604Z,69.19
2018-09-17T05:22:40.614Z,68.85
2018-09-17T05:27:43.636Z,68.09
2018-09-17T05:32:47.624Z,68.41
2018-09-17T05:37:51.214Z,68.29
2018-09-17T05:42:55.062Z,67.90
2018-09-17T05:47:58.235Z,67.98
2018-09-17T05:53:01.225Z,67.74
2018-09-17T05:58:04.340Z,67.60
2018-09-17T06:03:07.359Z,66.25
2018-09-17T06:08:10.397Z,65.37
2018-09-17T06:13:13.465Z,64.74
2018-09-17T06:18:17.786Z,64.54
2018-09-17T06:23:21.405Z,64.45
2018-09-17T06:28:25.081Z,63.97
2018-09-17T06:33:28.177Z,63.75
2018-09-17T06:38:31.190Z,63.56
2018-09-17T06:43:34.189Z,63.88
2018-09-17T06:48:37.189Z,63.39
2018-09-17T06:53:40.218Z,63.42
2018-09-17T06:58:44.922Z,63.23
2018-09-17T07:03:49.198Z,63.66
2018-09-17T07:08:52.936Z,63.34
2018-09-17T07:13:56.225Z,63.44
2018-09-17T07:18:59.262Z,63.00
2018-09-17T07:24:02.301Z,62.04
2018-09-17T07:29:05.567Z,60.71
2018-09-17T07:34:08.560Z,58.52
2018-09-17T07:39:11.794Z,56.42
2018-09-17T07:44:15.495Z,55.23
2018-09-17T07:49:19.428Z,54.53
2018-09-17T07:54:23.158Z,53.10
2018-09-17T07:59:26.781Z,52.45
2018-09-17T08:04:30.464Z,51.73
2018-09-17T08:09:33.599Z,51.85
2018-09-17T08:14:36.640Z,51.87
2018-09-17T08:19:39.702Z,52.02
2018-09-17T08:24:42.747Z,51.68
2018-09-17T08:29:45.766Z,51.36
2018-09-17T08:34:49.041Z,50.42
2018-09-17T08:39:53.123Z,49.34
2018-09-17T08:44:56.623Z,48.62
2018-09-17T08:49:59.949Z,48.29
2018-09-17T08:55:10.043Z,46.82
2018-09-17T09:00:17.110Z,46.79
2018-09-17T09:05:26.758Z,45.86
2018-09-17T09:11:39.631Z,45.97
2018-09-17T09:16:43.095Z,46.58
2018-09-17T09:21:46.931Z,46.47
2018-09-17T09:26:52.489Z,45.78
2018-09-17T09:31:56.595Z,44.65
2018-09-17T09:36:59.665Z,44.23
2018-09-17T09:42:02.809Z,42.51
2018-09-17T09:47:05.882Z,42.31
2018-09-17T09:52:08.917Z,41.54
2018-09-17T09:57:12.049Z,40.61
2018-09-17T10:02:21.268Z,40.62
2018-09-17T10:07:25.913Z,40.42
2018-09-17T10:12:35.330Z,40.24
2018-09-17T10:17:44.090Z,40.40
2018-09-17T10:22:47.130Z,40.86
2018-09-17T10:27:52.024Z,40.39
2018-09-17T10:32:56.387Z,39.97
2018-09-17T10:38:00.534Z,40.25
2018-09-17T10:43:04.549Z,40.07
2018-09-17T10:48:08.709Z,38.87
2018-09-17T10:53:12.571Z,38.98
2018-09-17T10:58:16.619Z,39.09
2018-09-17T11:03:21.602Z,39.50
2018-09-17T11:08:25.510Z,39.70
2018-09-17T11:13:28.589Z,39.56
2018-09-17T11:18:31.623Z,39.63
2018-09-17T11:23:34.702Z,39.29
2018-09-17T11:28:37.753Z,39.51
2018-09-17T11:33:40.817Z,38.83
2018-09-17T11:38:46.617Z,38.74
2018-09-17T11:43:50.507Z,39.13
2018-09-17T11:48:56.344Z,38.72
2018-09-17T11:53:59.468Z,38.71
2018-09-17T11:59:02.565Z,38.33
2018-09-17T12:04:11.453Z,38.24
2018-09-17T12:09:14.578Z,37.44
2018-09-17T12:14:18.821Z,37.65
2018-09-17T12:19:23.369Z,37.72
2018-09-17T12:24:27.589Z,38.19
2018-09-17T12:29:30.613Z,36.68
2018-09-17T12:34:33.663Z,36.38
2018-09-17T12:39:36.739Z,36.33
2018-09-17T12:44:39.829Z,36.24
2018-09-17T12:49:43.954Z,36.19
2018-09-17T12:54:47.044Z,36.07
2018-09-17T12:59:50.782Z,35.92
2018-09-17T13:04:53.844Z,35.41
2018-09-17T13:09:58.717Z,35.43
2018-09-17T13:15:02.841Z,34.70
2018-09-17T13:20:07.415Z,33.70
2018-09-17T13:25:10.458Z,33.96
2018-09-17T13:30:13.530Z,34.19
2018-09-17T13:35:16.615Z,33.96
2018-09-17T13:40:19.653Z,32.78
2018-09-17T13:45:23.128Z,31.69
2018-09-17T13:50:29.063Z,32.08
2018-09-17T13:55:32.753Z,32.71
2018-09-17T14:00:36.605Z,32.45
2018-09-17T14:05:41.740Z,32.80
2018-09-17T14:10:44.890Z,32.65
2018-09-17T14:15:53.666Z,32.28
2018-09-17T14:20:58.140Z,31.40
2018-09-17T14:26:03.216Z,31.77
2018-09-17T14:31:06.648Z,31.67
2018-09-17T14:36:10.753Z,32.02
2018-09-17T14:41:13.892Z,32.13
2018-09-17T14:46:17.554Z,31.65
2018-09-17T14:51:21.153Z,31.88
2018-09-17T14:56:25.592Z,32.65
2018-09-17T15:01:29.517Z,32.34
2018-09-17T15:06:33.429Z,32.31
2018-09-17T15:11:36.483Z,32.14
2018-09-17T15:16:39.577Z,32.07
2018-09-17T15:21:42.629Z,31.38
2018-09-17T15:26:46.256Z,31.30
2018-09-17T15:31:49.681Z,31.21
2018-09-17T15:36:54.911Z,31.14
2018-09-17T15:41:58.938Z,31.09
2018-09-17T15:47:01.995Z,32.18
2018-09-17T15:52:05.234Z,32.31
2018-09-17T15:57:08.362Z,32.69
2018-09-17T16:02:11.490Z,33.12
2018-09-17T16:07:15.528Z,33.18
2018-09-17T16:12:19.762Z,33.04
2018-09-17T16:17:22.789Z,33.08
2018-09-17T16:22:25.986Z,33.90
2018-09-17T16:27:30.214Z,33.61
2018-09-17T16:32:35.731Z,33.90
2018-09-17T16:37:40.840Z,34.19
2018-09-17T16:42:47.306Z,34.83
2018-09-17T16:47:51.756Z,34.55
2018-09-17T16:52:54.941Z,35.56
2018-09-17T16:57:57.975Z,35.67
2018-09-17T17:03:00.977Z,36.38
2018-09-17T17:08:04.086Z,37.04
2018-09-17T17:13:07.386Z,37.95
2018-09-17T17:18:12.238Z,39.44
2018-09-17T17:23:16.130Z,40.30
2018-09-17T17:28:20.046Z,41.08
2018-09-17T17:33:23.263Z,41.68
2018-09-17T17:38:26.319Z,42.72
2018-09-17T17:43:30.614Z,43.80
2018-09-17T17:48:34.500Z,44.16
2018-09-17T17:53:39.098Z,45.32
2018-09-17T17:58:42.246Z,45.63
2018-09-17T18:03:45.611Z,46.65
2018-09-17T18:08:48.914Z,46.98
2018-09-17T18:13:52.116Z,47.68
2018-09-17T18:18:55.587Z,48.18
2018-09-17T18:23:59.790Z,49.05
2018-09-17T18:29:03.759Z,49.43
2018-09-17T18:34:09.251Z,49.51
2018-09-17T18:39:12.832Z,50.51
2018-09-17T18:44:17.329Z,50.37
2018-09-17T18:49:21.116Z,51.01
2018-09-17T18:54:24.662Z,51.20
2018-09-17T18:59:28.912Z,51.33
2018-09-17T19:04:32.267Z,51.40
2018-09-17T19:09:42.528Z,51.68
2018-09-17T19:14:52.480Z,52.50
2018-09-17T19:19:56.511Z,52.20
2018-09-17T19:25:00.148Z,53.29
2018-09-17T19:30:04.521Z,53.58
2018-09-17T19:35:08.864Z,53.45
2018-09-17T19:40:16.479Z,54.46
2018-09-17T19:45:25.934Z,54.73
2018-09-17T19:50:35.155Z,54.80
2018-09-17T19:55:39.142Z,54.73
2018-09-17T20:00:45.468Z,54.23
2018-09-17T20:05:55.492Z,53.82
2018-09-17T20:11:00.134Z,52.48
2018-09-17T20:16:04.366Z,52.05
2018-09-17T20:21:10.079Z,52.19
2018-09-17T20:26:15.364Z,52.09
2018-09-17T20:31:21.566Z,51.83
2018-09-17T20:36:24.636Z,51.53
2018-09-17T20:41:27.784Z,52.18
2018-09-17T20:46:30.801Z,52.18
2018-09-17T20:51:33.854Z,53.17
2018-09-17T20:56:36.942Z,53.21
2018-09-17T21:01:42.219Z,53.63
2018-09-17T21:06:46.712Z,53.83
2018-09-17T21:11:50.990Z,53.87
2018-09-17T21:16:55.093Z,53.25
2018-09-17T21:21:58.118Z,53.25
2018-09-17T21:27:01.132Z,53.26
2018-09-17T21:32:04.817Z,53.22
2018-09-17T21:37:09.289Z,54.06
2018-09-17T21:42:14.467Z,54.66
2018-09-17T21:47:18.137Z,54.54
2018-09-17T21:52:21.595Z,54.74
2018-09-17T21:57:24.627Z,54.74
2018-09-17T22:02:28.896Z,55.19
2018-09-17T22:07:31.977Z,56.07
2018-09-17T22:12:35.048Z,56.79
2018-09-17T22:17:38.875Z,57.05
2018-09-17T22:22:43.878Z,57.81
2018-09-17T22:27:48.030Z,57.81
2018-09-17T22:32:51.425Z,57.95
2018-09-17T22:37:54.564Z,57.58
2018-09-17T22:42:57.601Z,57.81
2018-09-17T22:48:00.636Z,58.40
2018-09-17T22:53:03.793Z,58.13
2018-09-17T22:58:07.247Z,58.31
2018-09-17T23:03:12.166Z,58.25
2018-09-17T23:08:15.742Z,58.22
2018-09-17T23:13:19.002Z,58.71
2018-09-17T23:18:22.019Z,58.77
2018-09-17T23:23:25.034Z,59.22
2018-09-17T23:28:28.063Z,59.50
2018-09-17T23:33:31.078Z,59.34
2018-09-17T23:38:34.541Z,60.01
2018-09-17T23:43:38.662Z,59.79
2018-09-17T23:48:44.343Z,60.33
2018-09-17T23:53:47.788Z,60.26
2018-09-17T23:58:51.360Z,60.66
